Time;durP1;ratioP1;P1;durP2;ratioP2;P2;SDS_P1;SDS_P2;PMS_P1;PMS_P2;Temp;Humidity;BMP_temperature;BMP_pressure;BME280_temperature;BME280_humidity;BME280_pressure;Samples;Min_cycle;Max_cycle;Signal;HPM_P1;HPM_P2
2023/08/16 00:01:57;;;;;;;10.63;5.10;;;;;;;19.58;71.76;102083.56;5069693;28;20043;-46
2023/08/16 00:04:23;;;;;;;8.68;4.95;;;;;;;19.53;71.91;102087.97;5068434;28;20509;-46
2023/08/16 00:06:49;;;;;;;7.43;4.80;;;;;;;19.49;71.82;102087.13;5069587;28;20518;-46
2023/08/16 00:09:15;;;;;;;7.90;4.78;;;;;;;19.52;71.91;102088.88;5068857;28;20040;-47
2023/08/16 00:11:41;;;;;;;10.10;5.40;;;;;;;19.48;72.28;102090.66;5068977;28;20029;-47
2023/08/16 00:14:06;;;;;;;9.13;5.32;;;;;;;19.45;72.35;102088.00;5068945;28;20040;-49
2023/08/16 00:16:32;;;;;;;8.98;5.13;;;;;;;19.45;71.93;102085.34;5070232;28;20029;-46
2023/08/16 00:18:57;;;;;;;9.88;4.90;;;;;;;19.40;72.12;102079.16;5070714;28;20175;-43
2023/08/16 00:21:22;;;;;;;7.53;4.82;;;;;;;19.34;72.34;102082.72;5070036;28;20483;-48
2023/08/16 00:23:48;;;;;;;6.85;4.78;;;;;;;19.34;72.09;102081.84;5069556;28;20052;-44
2023/08/16 00:26:13;;;;;;;7.72;4.88;;;;;;;19.36;71.82;102080.97;5070306;28;20028;-47
2023/08/16 00:28:38;;;;;;;9.07;5.00;;;;;;;19.32;72.08;102083.63;5070047;28;20037;-43
2023/08/16 00:31:04;;;;;;;8.27;4.50;;;;;;;19.30;72.21;102085.38;5069819;28;20106;-44
2023/08/16 00:33:29;;;;;;;8.07;4.97;;;;;;;19.27;72.16;102086.25;5068706;28;20036;-49
2023/08/16 00:35:54;;;;;;;7.70;4.82;;;;;;;19.28;72.42;102090.69;5069099;28;20040;-45
2023/08/16 00:38:20;;;;;;;9.10;5.10;;;;;;;19.30;72.59;102095.97;5069471;28;20450;-45
2023/08/16 00:40:52;;;;;;;7.60;4.72;;;;;;;19.28;72.40;102093.31;5070330;28;20400;-44
2023/08/16 00:43:17;;;;;;;8.57;5.00;;;;;;;19.32;72.04;102100.38;5069380;28;20035;-46
2023/08/16 00:45:45;;;;;;;7.78;5.00;;;;;;;19.25;72.20;102103.03;5068784;28;20040;-45
2023/08/16 00:48:13;;;;;;;6.88;4.55;;;;;;;19.24;72.03;102106.56;5068159;28;20068;-44
2023/08/16 00:50:38;;;;;;;7.45;4.90;;;;;;;19.19;72.44;102103.94;5068235;28;20043;-47
2023/08/16 00:53:05;;;;;;;9.38;4.80;;;;;;;19.21;72.10;102103.94;5069680;28;20045;-46
2023/08/16 00:55:31;;;;;;;7.30;4.68;;;;;;;19.15;72.24;102104.81;5072071;28;20044;-47
2023/08/16 00:57:57;;;;;;;7.38;4.70;;;;;;;19.11;72.35;102105.72;5073682;28;20036;-45
2023/08/16 01:00:23;;;;;;;9.02;4.93;;;;;;;19.11;72.26;102113.63;5073332;28;20128;-45
2023/08/16 01:02:49;;;;;;;6.70;4.47;;;;;;;19.12;72.63;102109.25;5074038;28;20028;-48
2023/08/16 01:05:15;;;;;;;7.97;4.43;;;;;;;19.10;72.48;102106.59;5072781;28;20119;-44
2023/08/16 01:07:41;;;;;;;7.88;4.93;;;;;;;19.10;72.57;102103.06;5073253;28;20033;-44
2023/08/16 01:10:08;;;;;;;8.10;4.85;;;;;;;19.13;72.33;102108.34;5072984;28;20085;-46
2023/08/16 01:13:06;;;;;;;8.55;4.80;;;;;;;19.14;72.30;102110.13;5072980;28;20043;-49
2023/08/16 01:15:36;;;;;;;7.45;4.65;;;;;;;19.07;72.59;102114.53;5071958;28;20518;-46
2023/08/16 01:18:02;;;;;;;9.85;4.32;;;;;;;19.04;72.64;102110.13;5072964;28;20047;-48
2023/08/16 01:20:31;;;;;;;7.32;4.63;;;;;;;19.06;72.34;102107.50;5071253;28;20036;-47
2023/08/16 01:23:17;;;;;;;8.10;5.03;;;;;;;19.00;72.73;102116.31;5072794;28;20136;-44
2023/08/16 01:26:12;;;;;;;8.40;4.65;;;;;;;19.00;72.67;102113.66;5052781;28;20025;-44
2023/08/16 01:28:39;;;;;;;7.05;4.15;;;;;;;18.98;72.61;102122.47;5052071;28;20370;-42
2023/08/16 01:31:06;;;;;;;5.50;3.78;;;;;;;18.95;72.69;102117.19;5053086;28;20044;-45
2023/08/16 01:33:31;;;;;;;7.05;4.13;;;;;;;18.95;72.66;102125.13;5052966;28;20505;-44
2023/08/16 01:35:56;;;;;;;7.47;4.68;;;;;;;18.94;72.74;102136.56;5069057;28;20029;-47
2023/08/16 01:38:22;;;;;;;8.80;5.28;;;;;;;18.98;72.69;102136.56;5072160;28;20135;-46
2023/08/16 01:41:09;;;;;;;8.80;5.00;;;;;;;18.92;73.36;102143.63;5072285;28;20486;-47
2023/08/16 01:43:35;;;;;;;9.73;5.35;;;;;;;18.90;73.66;102137.47;5055415;28;20150;-47
2023/08/16 01:46:03;;;;;;;9.77;5.10;;;;;;;18.92;73.39;102138.34;5072343;28;20033;-47
2023/08/16 01:48:29;;;;;;;7.10;4.70;;;;;;;18.89;73.35;102139.22;5070326;28;20036;-44
2023/08/16 01:50:55;;;;;;;8.93;5.30;;;;;;;18.91;73.34;102142.72;5072195;28;20032;-44
2023/08/16 01:53:20;;;;;;;7.82;5.28;;;;;;;18.95;73.38;102138.34;5070834;28;20037;-44
2023/08/16 01:55:46;;;;;;;7.38;4.60;;;;;;;18.97;73.17;102140.09;5071995;28;20384;-44
2023/08/16 01:58:12;;;;;;;7.95;4.78;;;;;;;18.94;73.04;102137.47;5072692;28;20032;-45
2023/08/16 02:00:37;;;;;;;9.05;5.32;;;;;;;18.92;72.90;102144.50;5075698;28;20104;-50
2023/08/16 02:03:03;;;;;;;8.27;5.55;;;;;;;18.89;73.10;102135.72;5072538;28;20043;-45
2023/08/16 02:05:28;;;;;;;9.65;6.00;;;;;;;18.86;72.77;102133.94;5070096;28;20028;-48
2023/08/16 02:07:53;;;;;;;8.68;5.10;;;;;;;18.81;73.11;102143.63;5072107;28;20119;-50
2023/08/16 02:10:19;;;;;;;8.35;5.00;;;;;;;18.78;73.19;102143.66;5071309;28;20163;-49
2023/08/16 02:12:45;;;;;;;8.07;4.93;;;;;;;18.75;73.16;102146.28;5071574;28;20063;-45
2023/08/16 02:15:11;;;;;;;8.95;5.68;;;;;;;18.69;73.43;102148.91;5070534;28;20037;-50
2023/08/16 02:17:36;;;;;;;9.18;5.90;;;;;;;18.68;73.76;102147.16;5071942;28;20033;-48
2023/08/16 02:20:02;;;;;;;8.60;5.40;;;;;;;18.74;73.28;102138.34;5071911;28;20127;-44
2023/08/16 02:22:28;;;;;;;8.48;5.30;;;;;;;18.71;73.07;102141.00;5071562;28;20037;-46
2023/08/16 02:24:53;;;;;;;19.10;5.53;;;;;;;18.66;73.49;102142.78;5072185;28;20419;-46
2023/08/16 02:27:18;;;;;;;6.78;4.72;;;;;;;18.62;73.82;102136.59;5071439;28;20032;-46
2023/08/16 02:29:44;;;;;;;6.15;4.60;;;;;;;18.57;74.01;102144.50;5071572;28;20064;-45
2023/08/16 02:32:09;;;;;;;6.30;4.28;;;;;;;18.60;73.54;102144.50;5071089;28;20040;-47
2023/08/16 02:34:34;;;;;;;6.05;4.35;;;;;;;18.55;73.89;102159.47;5071092;28;20041;-46
2023/08/16 02:37:00;;;;;;;6.72;4.40;;;;;;;18.54;73.70;102154.19;5071291;28;20404;-45
2023/08/16 02:39:25;;;;;;;7.32;4.93;;;;;;;18.56;73.50;102142.75;5069547;28;20124;-46
2023/08/16 02:41:53;;;;;;;7.05;4.70;;;;;;;18.54;73.39;102138.31;5071397;28;20036;-47
2023/08/16 02:44:19;;;;;;;7.43;4.70;;;;;;;18.46;73.77;102135.66;5070336;28;20076;-48
2023/08/16 02:46:44;;;;;;;7.35;5.10;;;;;;;18.41;74.06;102139.19;5071489;28;20117;-45
2023/08/16 02:49:09;;;;;;;5.97;4.22;;;;;;;18.41;73.59;102140.06;5070950;28;20517;-44
2023/08/16 02:51:35;;;;;;;7.10;4.93;;;;;;;18.36;73.82;102143.59;5070928;28;20459;-44
2023/08/16 02:54:00;;;;;;;9.82;5.70;;;;;;;18.33;73.92;102143.56;5070357;28;20578;-48
2023/08/16 02:56:25;;;;;;;8.43;6.00;;;;;;;18.16;74.94;102148.81;5070834;28;20054;-47
2023/08/16 02:58:51;;;;;;;9.32;6.30;;;;;;;18.16;75.21;102151.47;5070721;28;20050;-45
2023/08/16 03:01:16;;;;;;;8.93;6.18;;;;;;;18.20;75.25;102155.84;5070023;28;20028;-46
2023/08/16 03:03:42;;;;;;;7.72;5.20;;;;;;;18.28;74.41;102150.59;5070523;28;20115;-47
2023/08/16 03:06:07;;;;;;;6.75;4.80;;;;;;;18.29;74.33;102144.44;5070469;28;20028;-44
2023/08/16 03:08:33;;;;;;;6.85;4.50;;;;;;;18.24;74.44;102147.06;5070621;28;20490;-52
2023/08/16 03:10:58;;;;;;;7.60;5.10;;;;;;;18.27;73.91;102139.16;5070491;28;20510;-46
2023/08/16 03:13:23;;;;;;;8.43;5.40;;;;;;;18.20;74.17;102150.59;5067179;28;20578;-49
2023/08/16 03:15:49;;;;;;;7.85;5.57;;;;;;;18.19;74.38;102156.72;5056455;28;20040;-44
2023/08/16 03:18:14;;;;;;;8.10;5.35;;;;;;;18.20;74.40;102150.59;5069091;28;20119;-45
2023/08/16 03:20:39;;;;;;;9.63;5.82;;;;;;;18.14;74.84;102150.56;5069441;28;20044;-47
2023/08/16 03:23:05;;;;;;;9.05;5.30;;;;;;;18.23;74.61;102153.25;5070572;28;20060;-49
2023/08/16 03:25:30;;;;;;;7.85;5.60;;;;;;;18.22;74.47;102154.13;5069414;28;20044;-45
2023/08/16 03:27:55;;;;;;;7.78;5.30;;;;;;;18.22;74.67;102154.13;5068751;28;20056;-46
2023/08/16 03:30:21;;;;;;;8.73;5.45;;;;;;;18.22;74.58;102160.28;5069757;28;20052;-44
2023/08/16 03:32:46;;;;;;;9.45;5.90;;;;;;;18.25;74.42;102157.63;5070370;28;20064;-46
2023/08/16 03:35:11;;;;;;;8.35;5.43;;;;;;;18.29;74.23;102162.94;5069380;28;20064;-47
2023/08/16 03:37:37;;;;;;;8.68;5.68;;;;;;;18.25;74.62;102162.03;5070776;28;20036;-43
2023/08/16 03:40:02;;;;;;;11.40;7.03;;;;;;;18.18;75.57;102168.16;5071489;28;20054;-50
2023/08/16 03:42:28;;;;;;;9.15;6.03;;;;;;;18.25;75.03;102167.31;5070614;28;20036;-45
2023/08/16 03:44:53;;;;;;;8.68;6.10;;;;;;;18.28;74.34;102169.97;5070426;28;20039;-47
2023/08/16 03:47:19;;;;;;;9.95;5.97;;;;;;;18.22;74.82;102172.59;5070701;28;20033;-48
2023/08/16 03:49:44;;;;;;;12.48;6.28;;;;;;;18.28;74.20;102177.00;5070228;28;20036;-45
2023/08/16 03:52:10;;;;;;;10.05;6.20;;;;;;;18.24;74.39;102176.09;5071116;28;20039;-47
2023/08/16 03:54:35;;;;;;;8.65;5.97;;;;;;;18.28;74.27;102177.88;5070751;28;20041;-47
2023/08/16 03:57:00;;;;;;;12.88;7.00;;;;;;;18.28;74.33;102175.25;5071054;28;20038;-43
2023/08/16 03:59:26;;;;;;;10.23;6.43;;;;;;;18.30;74.56;102183.19;5070206;28;20071;-45
2023/08/16 04:01:51;;;;;;;11.05;6.43;;;;;;;18.26;75.15;102179.63;5069865;28;20045;-46
2023/08/16 04:04:16;;;;;;;12.32;6.40;;;;;;;18.30;74.63;102178.75;5068725;28;20059;-44
2023/08/16 04:06:42;;;;;;;8.65;5.60;;;;;;;18.26;74.79;102177.00;5069497;28;20035;-47
2023/08/16 04:09:08;;;;;;;8.90;6.15;;;;;;;18.27;74.57;102178.75;5069321;28;20066;-45
2023/08/16 04:11:34;;;;;;;10.18;6.35;;;;;;;18.27;74.44;102169.97;5069380;28;20550;-46
2023/08/16 04:13:59;;;;;;;10.77;6.22;;;;;;;18.22;74.82;102170.84;5069025;28;20116;-44
2023/08/16 04:16:24;;;;;;;9.73;6.03;;;;;;;18.24;74.57;102170.81;5069534;28;20411;-44
2023/08/16 04:18:53;;;;;;;9.93;6.43;;;;;;;18.26;74.51;102171.72;5070552;28;20040;-44
2023/08/16 04:21:18;;;;;;;10.55;6.22;;;;;;;18.23;74.67;102175.25;5069921;28;20081;-44
2023/08/16 04:23:44;;;;;;;11.80;6.70;;;;;;;18.29;74.48;102171.75;5069029;28;20032;-46
2023/08/16 04:26:09;;;;;;;10.73;6.50;;;;;;;18.28;74.82;102175.25;5069127;28;20036;-47
2023/08/16 04:28:34;;;;;;;9.20;6.10;;;;;;;18.27;74.86;102175.25;5068914;28;20518;-49
2023/08/16 04:31:00;;;;;;;12.93;7.20;;;;;;;18.33;75.09;102178.78;5068996;28;20064;-46
2023/08/16 04:33:25;;;;;;;12.63;7.65;;;;;;;18.33;74.80;102173.50;5068319;28;20477;-46
2023/08/16 04:35:51;;;;;;;13.65;7.97;;;;;;;18.38;74.79;102177.03;5069486;28;20048;-44
2023/08/16 04:38:16;;;;;;;12.77;7.88;;;;;;;18.44;74.83;102181.44;5068627;28;20037;-46
2023/08/16 04:40:41;;;;;;;14.25;8.55;;;;;;;18.43;74.70;102182.31;5069100;28;20040;-48
2023/08/16 04:43:07;;;;;;;14.63;8.15;;;;;;;18.41;75.17;102171.75;5068689;28;20037;-48
2023/08/16 04:45:32;;;;;;;14.27;8.52;;;;;;;18.42;75.25;102176.13;5068774;28;20688;-48
2023/08/16 04:47:57;;;;;;;13.90;8.50;;;;;;;18.45;75.47;102170.88;5069248;28;20051;-52
2023/08/16 04:50:23;;;;;;;12.70;7.80;;;;;;;18.50;75.38;102169.13;5068898;28;20059;-44
2023/08/16 04:52:48;;;;;;;12.80;7.57;;;;;;;18.55;74.85;102167.38;5069383;28;20078;-46
2023/08/16 04:55:14;;;;;;;12.82;7.82;;;;;;;18.56;74.79;102169.16;5068218;28;20044;-45
2023/08/16 04:57:40;;;;;;;12.60;7.72;;;;;;;18.49;75.05;102169.09;5069131;28;20575;-48
2023/08/16 05:00:07;;;;;;;11.77;7.40;;;;;;;18.24;75.96;102171.69;5069014;28;20120;-45
2023/08/16 05:02:32;;;;;;;12.25;7.53;;;;;;;18.43;75.28;102183.19;5068576;28;20550;-45
2023/08/16 05:04:58;;;;;;;11.63;7.53;;;;;;;18.46;75.39;102184.97;5068471;28;20037;-45
2023/08/16 05:07:23;;;;;;;13.15;8.20;;;;;;;18.46;75.43;102183.22;5068412;28;20037;-44
2023/08/16 05:09:48;;;;;;;12.45;7.28;;;;;;;18.48;75.61;102183.22;5069114;28;20037;-51
2023/08/16 05:12:14;;;;;;;12.00;7.95;;;;;;;18.48;75.71;102185.84;5068191;28;20123;-46
2023/08/16 05:14:39;;;;;;;12.48;7.82;;;;;;;18.50;75.50;102186.72;5068460;28;20064;-46
2023/08/16 05:17:04;;;;;;;11.73;7.50;;;;;;;18.50;75.52;102192.00;5069114;28;20059;-43
2023/08/16 05:19:30;;;;;;;12.70;6.75;;;;;;;18.52;75.48;102187.63;5068268;28;20033;-44
2023/08/16 05:21:55;;;;;;;9.52;6.20;;;;;;;18.56;75.51;102195.56;5069302;28;20041;-50
2023/08/16 05:24:20;;;;;;;12.77;7.97;;;;;;;18.55;75.87;102191.16;5067873;28;20101;-49
2023/08/16 05:26:45;;;;;;;12.50;7.85;;;;;;;18.59;75.91;102192.06;5069295;28;20576;-48
2023/08/16 05:29:11;;;;;;;11.98;7.70;;;;;;;18.65;75.97;102194.72;5068488;28;20423;-45
2023/08/16 05:31:37;;;;;;;12.07;7.45;;;;;;;18.73;76.15;102192.94;5068646;28;20543;-43
2023/08/16 05:34:02;;;;;;;12.65;7.40;;;;;;;18.86;76.29;102185.91;5068614;28;20106;-45
2023/08/16 05:36:29;;;;;;;14.30;7.28;;;;;;;18.97;76.38;102190.31;5069968;28;20035;-44
2023/08/16 05:38:54;;;;;;;13.00;7.47;;;;;;;19.22;76.19;102193.81;5069987;28;20083;-48
2023/08/16 05:41:20;;;;;;;15.10;8.52;;;;;;;19.43;76.14;102193.78;5070118;28;20028;-52
2023/08/16 05:43:45;;;;;;;14.80;8.52;;;;;;;19.67;76.13;102195.50;5072181;28;20040;-43
2023/08/16 05:46:10;;;;;;;14.00;7.93;;;;;;;19.76;76.17;102195.47;5072151;28;20044;-47
2023/08/16 05:48:36;;;;;;;15.88;8.45;;;;;;;19.92;76.05;102193.66;5073138;28;20040;-44
2023/08/16 05:51:01;;;;;;;13.38;7.88;;;;;;;20.25;75.93;102192.59;5056012;28;20048;-46
2023/08/16 05:53:26;;;;;;;13.73;7.90;;;;;;;20.34;75.88;102192.59;5062381;28;20028;-50
2023/08/16 05:55:52;;;;;;;12.93;7.00;;;;;;;20.56;75.42;102203.91;5072058;28;20128;-45
2023/08/16 05:58:17;;;;;;;12.73;7.15;;;;;;;20.78;75.03;102202.00;5071701;28;20036;-44
2023/08/16 06:00:45;;;;;;;12.43;7.25;;;;;;;21.10;74.23;102210.59;5071740;28;20045;-45
2023/08/16 06:03:11;;;;;;;8.88;6.03;;;;;;;21.36;73.68;102211.22;5071523;28;20114;-44
2023/08/16 06:05:36;;;;;;;10.05;6.68;;;;;;;21.29;70.42;102214.84;5071405;28;20502;-46
2023/08/16 06:08:02;;;;;;;9.82;6.22;;;;;;;21.85;71.82;102219.53;5071700;28;20041;-46
2023/08/16 06:10:27;;;;;;;9.25;5.88;;;;;;;22.11;71.90;102213.94;5070050;28;20502;-46
2023/08/16 06:12:52;;;;;;;8.63;5.93;;;;;;;22.41;69.35;102214.41;5070767;28;20036;-46
2023/08/16 06:15:18;;;;;;;10.43;6.10;;;;;;;22.71;68.25;102215.75;5070431;28;20045;-47
2023/08/16 06:17:43;;;;;;;8.07;5.25;;;;;;;23.30;67.05;102214.75;5071564;28;20040;-45
2023/08/16 06:20:10;;;;;;;9.65;5.88;;;;;;;23.77;62.25;102206.81;5071227;28;20475;-44
2023/08/16 06:22:37;;;;;;;9.48;6.03;;;;;;;24.20;60.71;102211.25;5071449;28;20024;-45
2023/08/16 06:25:04;;;;;;;12.05;6.43;;;;;;;24.22;58.54;102202.31;5070954;28;20487;-49
2023/08/16 06:27:30;;;;;;;12.50;6.40;;;;;;;24.49;56.67;102208.81;5069523;28;20028;-45
2023/08/16 06:29:55;;;;;;;8.05;5.53;;;;;;;24.92;57.38;102211.34;5071316;28;20036;-44
2023/08/16 06:32:20;;;;;;;9.02;6.00;;;;;;;25.07;56.40;102204.72;5071048;28;20032;-49
2023/08/16 06:34:46;;;;;;;8.60;5.70;;;;;;;25.48;54.77;102205.44;5071043;28;20032;-44
2023/08/16 06:37:11;;;;;;;8.15;5.53;;;;;;;25.84;54.32;102217.81;5076237;28;20590;-46
2023/08/16 06:39:38;;;;;;;8.52;5.70;;;;;;;26.10;52.65;102217.03;5080613;28;20040;-50
2023/08/16 06:42:03;;;;;;;7.97;4.57;;;;;;;26.92;49.46;102209.13;5077249;28;20060;-47
2023/08/16 06:44:29;;;;;;;8.57;5.50;;;;;;;27.63;48.85;102206.63;5073562;28;20027;-52
2023/08/16 06:46:54;;;;;;;8.18;4.43;;;;;;;29.19;45.46;102207.56;5072648;28;20041;-45
2023/08/16 06:49:21;;;;;;;12.40;4.53;;;;;;;29.98;42.98;102204.06;5071714;28;20119;-47
2023/08/16 06:51:46;;;;;;;8.30;4.90;;;;;;;30.11;42.01;102204.34;5071036;28;20068;-46
2023/08/16 06:54:11;;;;;;;8.02;4.55;;;;;;;30.40;40.81;102209.19;5070095;28;20070;-49
2023/08/16 06:56:37;;;;;;;7.95;3.83;;;;;;;30.40;41.63;102214.59;5071145;28;20415;-45
2023/08/16 06:59:02;;;;;;;7.88;4.65;;;;;;;30.99;39.52;102214.34;5070989;28;20049;-49
2023/08/16 07:01:27;;;;;;;7.97;4.70;;;;;;;30.75;39.05;102209.31;5070050;28;20458;-45
2023/08/16 07:03:53;;;;;;;6.63;4.28;;;;;;;31.37;38.66;102206.13;5070314;28;20090;-45
2023/08/16 07:06:19;;;;;;;7.80;4.60;;;;;;;31.26;38.39;102220.16;5070323;28;20055;-45
2023/08/16 07:08:44;;;;;;;6.80;3.95;;;;;;;32.12;36.51;102213.75;5070940;28;20043;-49
2023/08/16 07:11:09;;;;;;;5.78;3.70;;;;;;;32.91;35.04;102209.22;5071285;28;20033;-44
2023/08/16 07:13:35;;;;;;;6.40;3.90;;;;;;;31.96;36.75;102216.41;5070891;28;20720;-45
2023/08/16 07:16:00;;;;;;;6.78;3.47;;;;;;;32.46;35.44;102210.91;5071307;28;20119;-49
2023/08/16 07:18:26;;;;;;;8.63;3.55;;;;;;;31.99;35.67;102223.47;5070117;28;20355;-47
2023/08/16 07:20:51;;;;;;;6.50;3.90;;;;;;;31.92;36.54;102216.66;5070255;28;20041;-49
2023/08/16 07:23:16;;;;;;;4.85;3.13;;;;;;;32.08;36.09;102215.72;5069455;28;20044;-45
2023/08/16 07:25:42;;;;;;;5.47;3.50;;;;;;;31.70;35.07;102219.69;5070087;28;20037;-47
2023/08/16 07:28:07;;;;;;;5.85;3.03;;;;;;;32.42;33.89;102224.69;5050769;28;20544;-50
2023/08/16 07:30:35;;;;;;;5.90;3.08;;;;;;;31.84;35.60;102219.78;5070048;28;20093;-45
2023/08/16 07:33:01;;;;;;;4.88;2.75;;;;;;;32.20;34.43;102225.88;5068849;28;20150;-45
2023/08/16 07:35:26;;;;;;;5.57;3.00;;;;;;;32.23;34.86;102227.53;5069141;28;20036;-47
2023/08/16 07:37:51;;;;;;;4.05;2.55;;;;;;;32.10;34.54;102221.06;5069925;28;20443;-48
2023/08/16 07:40:17;;;;;;;5.30;2.70;;;;;;;31.19;37.22;102225.94;5069265;28;20044;-44
2023/08/16 07:42:42;;;;;;;5.32;2.60;;;;;;;31.17;36.09;102223.31;5069872;28;20123;-46
2023/08/16 07:45:08;;;;;;;5.63;2.50;;;;;;;31.49;35.80;102229.72;5068760;28;20063;-43
2023/08/16 07:47:33;;;;;;;4.47;2.20;;;;;;;30.63;36.37;102238.59;5069897;28;20461;-46
2023/08/16 07:49:59;;;;;;;3.75;2.03;;;;;;;31.88;33.60;102226.78;5069856;28;20124;-46
2023/08/16 07:52:24;;;;;;;3.92;2.03;;;;;;;31.79;34.62;102233.53;5069274;28;20397;-48
2023/08/16 07:54:50;;;;;;;3.17;1.73;;;;;;;31.68;35.17;102235.06;5069109;28;20068;-44
2023/08/16 07:57:16;;;;;;;4.03;2.20;;;;;;;31.42;33.94;102234.56;5069408;28;20075;-45
2023/08/16 07:59:41;;;;;;;4.20;1.90;;;;;;;31.55;35.54;102231.22;5069473;28;20071;-47
2023/08/16 08:02:07;;;;;;;5.03;1.83;;;;;;;31.67;33.04;102227.91;5069238;28;20599;-44
2023/08/16 08:04:33;;;;;;;2.95;1.52;;;;;;;32.10;32.74;102240.81;5068731;28;20037;-46
2023/08/16 08:06:59;;;;;;;3.97;1.63;;;;;;;32.31;31.93;102246.88;5069938;28;20040;-51
2023/08/16 08:09:24;;;;;;;4.30;1.63;;;;;;;31.12;35.84;102243.38;5068878;28;20044;-48
2023/08/16 08:11:49;;;;;;;3.80;1.63;;;;;;;31.39;33.19;102241.97;5069477;28;20537;-47
2023/08/16 08:14:15;;;;;;;3.42;1.70;;;;;;;29.72;37.03;102245.53;5068361;28;20048;-49
2023/08/16 08:16:40;;;;;;;4.88;1.80;;;;;;;29.17;38.33;102251.53;5069688;28;20033;-43
2023/08/16 08:19:06;;;;;;;2.90;1.50;;;;;;;28.67;39.32;102252.66;5069318;28;20403;-42
2023/08/16 08:21:31;;;;;;;4.78;1.80;;;;;;;27.69;41.43;102245.75;5069270;28;20101;-44
2023/08/16 08:23:56;;;;;;;2.78;1.63;;;;;;;27.72;43.40;102251.84;5068949;28;20120;-46
2023/08/16 08:26:24;;;;;;;4.25;2.13;;;;;;;27.22;45.87;102255.38;5069088;28;20109;-50
2023/08/16 08:28:51;;;;;;;3.28;2.00;;;;;;;27.21;44.83;102251.84;5069332;28;20041;-45
2023/08/16 08:31:16;;;;;;;4.30;2.33;;;;;;;26.59;45.59;102259.25;5068549;28;20085;-49
2023/08/16 08:33:42;;;;;;;5.75;2.72;;;;;;;26.53;46.59;102259.44;5068778;28;20037;-45
2023/08/16 08:36:07;;;;;;;4.80;2.30;;;;;;;26.55;47.37;102268.25;5069009;28;20504;-48
2023/08/16 08:38:32;;;;;;;4.20;2.55;;;;;;;26.68;47.82;102269.63;5069287;28;20033;-48
2023/08/16 08:40:59;;;;;;;5.68;2.40;;;;;;;26.75;47.79;102271.19;5069268;28;20040;-46
2023/08/16 08:43:35;;;;;;;4.35;2.63;;;;;;;26.66;48.03;102268.78;5068376;28;20047;-48
2023/08/16 08:46:03;;;;;;;8.98;3.35;;;;;;;26.22;48.66;102271.03;5069550;28;20033;-44
2023/08/16 08:48:29;;;;;;;4.20;3.00;;;;;;;26.46;49.16;102268.56;5068853;28;20049;-44
2023/08/16 08:50:55;;;;;;;5.22;2.85;;;;;;;26.50;49.73;102267.53;5069531;28;20156;-45
2023/08/16 08:53:22;;;;;;;7.00;3.70;;;;;;;25.94;50.22;102271.84;5068538;28;20239;-46
2023/08/16 08:55:49;;;;;;;5.90;3.03;;;;;;;25.54;51.26;102262.25;5069486;28;20529;-47
2023/08/16 08:58:17;;;;;;;5.65;3.30;;;;;;;26.00;51.21;102269.00;5068853;28;20036;-48
2023/08/16 09:00:44;;;;;;;6.38;2.70;;;;;;;26.32;49.84;102279.66;5069516;28;20037;-49
2023/08/16 09:03:10;;;;;;;7.53;3.60;;;;;;;26.27;50.03;102284.28;5068917;28;20097;-46
2023/08/16 09:05:38;;;;;;;5.38;3.00;;;;;;;26.40;49.65;102277.66;5067031;28;20032;-48
2023/08/16 09:08:05;;;;;;;6.07;3.40;;;;;;;26.07;49.95;102282.16;5069227;28;20124;-46
2023/08/16 09:10:35;;;;;;;5.95;3.00;;;;;;;25.99;50.80;102286.81;5069317;28;20059;-47
2023/08/16 09:13:04;;;;;;;4.43;2.08;;;;;;;26.35;49.66;102276.88;5070535;28;20039;-46
2023/08/16 09:15:29;;;;;;;4.63;1.95;;;;;;;26.56;48.54;102284.28;5069715;28;20033;-46
2023/08/16 09:18:05;;;;;;;5.20;1.90;;;;;;;26.28;46.65;102282.47;5074185;28;20051;-50
2023/08/16 09:20:30;;;;;;;3.80;1.73;;;;;;;26.37;47.51;102283.06;5072842;28;20515;-47
2023/08/16 09:22:56;;;;;;;3.55;2.08;;;;;;;26.12;46.04;102280.22;5074153;28;20082;-47
2023/08/16 09:25:23;;;;;;;4.57;1.67;;;;;;;26.61;44.80;102273.41;5072424;28;20036;-49
2023/08/16 09:27:50;;;;;;;2.38;1.77;;;;;;;26.22;45.04;102276.38;5073781;28;20043;-47
2023/08/16 09:30:16;;;;;;;3.83;1.42;;;;;;;26.21;44.39;102273.72;5072976;28;20039;-47
2023/08/16 09:32:41;;;;;;;4.78;1.92;;;;;;;26.37;45.54;102277.72;5072692;28;20514;-48
2023/08/16 09:35:12;;;;;;;9.43;2.08;;;;;;;26.47;45.22;102278.34;5071473;28;20093;-45
2023/08/16 09:37:38;;;;;;;2.42;1.52;;;;;;;26.62;44.10;102273.38;5071596;28;20033;-48
2023/08/16 09:40:06;;;;;;;3.75;1.58;;;;;;;26.76;45.13;102267.59;5071063;28;20524;-44
2023/08/16 09:42:34;;;;;;;3.00;1.70;;;;;;;26.73;44.20;102269.47;5070695;28;20039;-46
2023/08/16 09:45:01;;;;;;;3.08;1.60;;;;;;;27.05;44.27;102255.97;5071965;28;20036;-47
2023/08/16 09:47:28;;;;;;;3.95;1.90;;;;;;;26.78;45.50;102265.72;5072183;28;20036;-45
2023/08/16 09:49:54;;;;;;;3.35;2.10;;;;;;;26.92;44.85;102262.66;5072581;28;20041;-44
2023/08/16 09:52:20;;;;;;;3.40;2.00;;;;;;;26.96;45.67;102259.81;5072113;28;20060;-48
2023/08/16 09:54:50;;;;;;;4.50;2.08;;;;;;;27.12;45.98;102254.84;5071724;28;20102;-47
2023/08/16 09:57:16;;;;;;;3.03;1.80;;;;;;;26.76;45.37;102266.72;5072133;28;20039;-49
2023/08/16 09:59:43;;;;;;;3.20;1.55;;;;;;;26.89;44.86;102257.41;5072940;28;20164;-45
2023/08/16 10:02:12;;;;;;;2.70;1.70;;;;;;;26.73;44.21;102264.13;5072626;28;20028;-44
2023/08/16 10:04:39;;;;;;;3.53;1.90;;;;;;;26.72;44.59;102265.03;5071620;28;20037;-45
2023/08/16 10:07:06;;;;;;;2.75;1.63;;;;;;;27.13;44.71;102264.63;5072066;28;20047;-47
2023/08/16 10:09:33;;;;;;;4.55;1.98;;;;;;;26.67;45.01;102266.06;5072644;28;20029;-48
2023/08/16 10:12:01;;;;;;;4.57;2.20;;;;;;;26.89;43.97;102263.63;5072926;28;20085;-46
2023/08/16 10:14:27;;;;;;;5.55;1.95;;;;;;;26.73;45.47;102259.66;5071085;28;20576;-44
2023/08/16 10:16:56;;;;;;;3.05;1.77;;;;;;;27.13;44.91;102251.25;5072055;28;20041;-46
2023/08/16 10:19:23;;;;;;;3.88;2.20;;;;;;;27.12;44.91;102256.63;5071358;28;20032;-47
2023/08/16 10:21:51;;;;;;;3.67;2.10;;;;;;;27.33;43.94;102259.44;5071674;28;20056;-50
2023/08/16 10:24:17;;;;;;;2.85;1.73;;;;;;;26.52;45.82;102258.53;5070644;28;20036;-46
2023/08/16 10:26:46;;;;;;;3.03;1.83;;;;;;;26.89;43.90;102265.44;5071157;28;20037;-48
2023/08/16 10:29:14;;;;;;;4.47;1.67;;;;;;;26.59;45.15;102265.44;5071120;28;20041;-48
2023/08/16 10:31:44;;;;;;;2.78;1.60;;;;;;;27.08;44.15;102255.00;5071541;28;20033;-46
2023/08/16 10:34:14;;;;;;;2.85;1.60;;;;;;;26.93;42.89;102257.25;5071002;28;20491;-44
2023/08/16 10:36:40;;;;;;;3.88;1.60;;;;;;;27.02;42.76;102253.38;5071932;28;20032;-45
2023/08/16 10:39:07;;;;;;;4.40;1.60;;;;;;;26.79;43.32;102264.81;5071604;28;20111;-46
2023/08/16 10:41:42;;;;;;;3.60;1.63;;;;;;;26.67;43.28;102254.50;5071370;28;20036;-49
2023/08/16 10:44:07;;;;;;;5.55;1.60;;;;;;;26.85;42.33;102253.91;5070750;28;20029;-42
2023/08/16 10:46:37;;;;;;;4.82;1.90;;;;;;;27.24;42.23;102253.53;5074513;28;20039;-48
2023/08/16 10:49:08;;;;;;;4.65;1.70;;;;;;;26.33;44.63;102262.69;5074719;28;20503;-45
2023/08/16 10:51:48;;;;;;;2.30;1.50;;;;;;;26.53;44.24;102262.09;5073866;28;20704;-47
2023/08/16 10:54:15;;;;;;;3.58;1.42;;;;;;;26.85;42.03;102256.59;5072696;28;20463;-50
2023/08/16 10:56:47;;;;;;;4.25;1.70;;;;;;;26.74;42.93;102256.06;5071418;28;20038;-46
2023/08/16 10:59:13;;;;;;;2.67;1.30;;;;;;;26.76;41.35;102259.56;5070891;28;20047;-44
2023/08/16 11:01:52;;;;;;;3.22;1.55;;;;;;;27.25;41.64;102248.16;5070828;28;20035;-44
2023/08/16 11:04:17;;;;;;;4.18;1.58;;;;;;;27.16;40.88;102258.28;5067125;28;20052;-46
2023/08/16 11:06:43;;;;;;;2.95;1.50;;;;;;;27.38;42.29;102253.97;5071175;28;20074;-45
2023/08/16 11:09:09;;;;;;;2.92;1.60;;;;;;;27.58;41.83;102248.78;5070150;28;20115;-44
2023/08/16 11:11:35;;;;;;;2.78;1.40;;;;;;;27.87;41.59;102250.44;5070656;28;20433;-49
2023/08/16 11:14:00;;;;;;;3.15;1.50;;;;;;;27.95;40.64;102242.94;5070305;28;20037;-47
2023/08/16 11:16:27;;;;;;;2.40;1.60;;;;;;;27.31;42.04;102249.72;5070458;28;20384;-49
2023/08/16 11:18:52;;;;;;;6.45;1.70;;;;;;;27.70;39.46;102247.47;5070569;28;20561;-47
2023/08/16 11:21:19;;;;;;;2.30;1.20;;;;;;;27.56;40.14;102249.78;5069960;28;20124;-46